sensor_id;sensor_type;location;lat;lon;timestamp;P1;durP1;ratioP1;P2;durP2;ratioP2
76320;SDS011;65132;52.088;5.402;2023-02-28T00:00:31;5.35;;;1.30;;
76320;SDS011;65132;52.088;5.402;2023-02-28T00:02:58;4.82;;;1.30;;
76320;SDS011;65132;52.088;5.402;2023-02-28T00:05:26;5.72;;;1.58;;
76320;SDS011;65132;52.088;5.402;2023-02-28T00:07:54;4.05;;;1.27;;
76320;SDS011;65132;52.088;5.402;2023-02-28T00:10:24;5.68;;;1.55;;
76320;SDS011;65132;52.088;5.402;2023-02-28T00:12:54;3.78;;;1.55;;
76320;SDS011;65132;52.088;5.402;2023-02-28T00:15:22;4.05;;;1.65;;
76320;SDS011;65132;52.088;5.402;2023-02-28T00:17:49;3.25;;;1.45;;
76320;SDS011;65132;52.088;5.402;2023-02-28T00:20:16;2.72;;;1.00;;
76320;SDS011;65132;52.088;5.402;2023-02-28T00:22:44;3.17;;;1.25;;
76320;SDS011;65132;52.088;5.402;2023-02-28T00:25:14;3.53;;;1.38;;
76320;SDS011;65132;52.088;5.402;2023-02-28T00:27:42;5.50;;;1.30;;
76320;SDS011;65132;52.088;5.402;2023-02-28T00:30:10;4.88;;;1.45;;
76320;SDS011;65132;52.088;5.402;2023-02-28T00:32:38;4.47;;;1.48;;
76320;SDS011;65132;52.088;5.402;2023-02-28T00:35:05;4.05;;;1.25;;
76320;SDS011;65132;52.088;5.402;2023-02-28T00:37:32;3.20;;;1.02;;
76320;SDS011;65132;52.088;5.402;2023-02-28T00:39:59;6.20;;;1.42;;
76320;SDS011;65132;52.088;5.402;2023-02-28T00:42:25;2.83;;;1.20;;
76320;SDS011;65132;52.088;5.402;2023-02-28T00:44:52;4.28;;;1.30;;
76320;SDS011;65132;52.088;5.402;2023-02-28T00:47:18;4.47;;;1.65;;
76320;SDS011;65132;52.088;5.402;2023-02-28T00:49:45;5.28;;;1.65;;
76320;SDS011;65132;52.088;5.402;2023-02-28T00:52:12;4.72;;;2.10;;
76320;SDS011;65132;52.088;5.402;2023-02-28T00:54:38;3.47;;;1.38;;
76320;SDS011;65132;52.088;5.402;2023-02-28T00:57:04;3.22;;;1.55;;
76320;SDS011;65132;52.088;5.402;2023-02-28T00:59:31;4.22;;;1.23;;
76320;SDS011;65132;52.088;5.402;2023-02-28T01:01:57;7.10;;;1.88;;
76320;SDS011;65132;52.088;5.402;2023-02-28T01:04:23;3.95;;;1.80;;
76320;SDS011;65132;52.088;5.402;2023-02-28T01:06:50;3.95;;;1.80;;
76320;SDS011;65132;52.088;5.402;2023-02-28T01:09:16;4.82;;;1.85;;
76320;SDS011;65132;52.088;5.402;2023-02-28T01:11:43;3.97;;;1.50;;
76320;SDS011;65132;52.088;5.402;2023-02-28T01:14:12;4.88;;;2.17;;
76320;SDS011;65132;52.088;5.402;2023-02-28T01:16:40;5.75;;;2.17;;
76320;SDS011;65132;52.088;5.402;2023-02-28T01:19:06;5.32;;;1.85;;
76320;SDS011;65132;52.088;5.402;2023-02-28T01:21:33;4.93;;;2.00;;
76320;SDS011;65132;52.088;5.402;2023-02-28T01:23:59;5.25;;;1.80;;
76320;SDS011;65132;52.088;5.402;2023-02-28T01:26:26;6.32;;;1.75;;
76320;SDS011;65132;52.088;5.402;2023-02-28T01:28:53;4.68;;;1.80;;
76320;SDS011;65132;52.088;5.402;2023-02-28T01:31:22;3.67;;;1.80;;
76320;SDS011;65132;52.088;5.402;2023-02-28T01:33:49;4.45;;;1.88;;
76320;SDS011;65132;52.088;5.402;2023-02-28T01:36:18;4.45;;;2.05;;
76320;SDS011;65132;52.088;5.402;2023-02-28T01:38:47;3.53;;;1.75;;
76320;SDS011;65132;52.088;5.402;2023-02-28T01:41:16;4.60;;;1.70;;
76320;SDS011;65132;52.088;5.402;2023-02-28T01:46:11;5.15;;;2.13;;
76320;SDS011;65132;52.088;5.402;2023-02-28T01:48:40;5.47;;;1.80;;
76320;SDS011;65132;52.088;5.402;2023-02-28T01:51:12;3.60;;;1.55;;
76320;SDS011;65132;52.088;5.402;2023-02-28T01:53:55;4.63;;;2.05;;
76320;SDS011;65132;52.088;5.402;2023-02-28T01:56:26;6.38;;;2.30;;
76320;SDS011;65132;52.088;5.402;2023-02-28T02:01:22;4.32;;;1.73;;
76320;SDS011;65132;52.088;5.402;2023-02-28T02:03:56;4.50;;;1.95;;
76320;SDS011;65132;52.088;5.402;2023-02-28T02:06:29;5.75;;;2.60;;
76320;SDS011;65132;52.088;5.402;2023-02-28T02:09:00;6.85;;;2.15;;
76320;SDS011;65132;52.088;5.402;2023-02-28T02:11:26;5.75;;;2.22;;
76320;SDS011;65132;52.088;5.402;2023-02-28T02:13:58;4.95;;;2.05;;
76320;SDS011;65132;52.088;5.402;2023-02-28T02:24:59;4.95;;;2.30;;
76320;SDS011;65132;52.088;5.402;2023-02-28T02:27:43;7.20;;;2.28;;
76320;SDS011;65132;52.088;5.402;2023-02-28T02:33:20;5.70;;;2.28;;
76320;SDS011;65132;52.088;5.402;2023-02-28T02:36:06;5.43;;;1.98;;
76320;SDS011;65132;52.088;5.402;2023-02-28T02:44:19;4.63;;;2.33;;
76320;SDS011;65132;52.088;5.402;2023-02-28T02:46:51;6.93;;;2.10;;
76320;SDS011;65132;52.088;5.402;2023-02-28T02:49:22;5.03;;;2.50;;
76320;SDS011;65132;52.088;5.402;2023-02-28T02:51:53;4.80;;;2.20;;
76320;SDS011;65132;52.088;5.402;2023-02-28T02:54:30;4.22;;;1.83;;
76320;SDS011;65132;52.088;5.402;2023-02-28T02:57:01;4.50;;;1.60;;
76320;SDS011;65132;52.088;5.402;2023-02-28T02:59:33;6.30;;;2.50;;
76320;SDS011;65132;52.088;5.402;2023-02-28T03:02:04;4.68;;;2.00;;
76320;SDS011;65132;52.088;5.402;2023-02-28T03:07:04;5.10;;;2.15;;
76320;SDS011;65132;52.088;5.402;2023-02-28T03:09:32;6.13;;;2.28;;
76320;SDS011;65132;52.088;5.402;2023-02-28T03:11:59;4.82;;;2.03;;
76320;SDS011;65132;52.088;5.402;2023-02-28T03:17:24;7.03;;;2.58;;
76320;SDS011;65132;52.088;5.402;2023-02-28T03:20:15;4.80;;;2.10;;
76320;SDS011;65132;52.088;5.402;2023-02-28T03:22:52;4.43;;;1.83;;
76320;SDS011;65132;52.088;5.402;2023-02-28T03:25:36;4.32;;;2.15;;
76320;SDS011;65132;52.088;5.402;2023-02-28T03:28:13;4.65;;;1.80;;
76320;SDS011;65132;52.088;5.402;2023-02-28T03:33:14;3.42;;;1.73;;
76320;SDS011;65132;52.088;5.402;2023-02-28T03:35:48;4.55;;;1.92;;
76320;SDS011;65132;52.088;5.402;2023-02-28T03:38:24;5.65;;;2.65;;
76320;SDS011;65132;52.088;5.402;2023-02-28T03:43:56;4.65;;;2.03;;
76320;SDS011;65132;52.088;5.402;2023-02-28T03:46:27;6.45;;;2.30;;
76320;SDS011;65132;52.088;5.402;2023-02-28T03:49:02;6.68;;;2.25;;
76320;SDS011;65132;52.088;5.402;2023-02-28T03:51:35;5.53;;;2.22;;
76320;SDS011;65132;52.088;5.402;2023-02-28T03:54:05;4.72;;;2.15;;
76320;SDS011;65132;52.088;5.402;2023-02-28T03:56:40;5.95;;;2.22;;
76320;SDS011;65132;52.088;5.402;2023-02-28T03:59:18;5.28;;;2.22;;
76320;SDS011;65132;52.088;5.402;2023-02-28T04:01:52;6.43;;;2.53;;
76320;SDS011;65132;52.088;5.402;2023-02-28T04:04:18;6.50;;;2.40;;
76320;SDS011;65132;52.088;5.402;2023-02-28T04:06:45;5.50;;;2.22;;
76320;SDS011;65132;52.088;5.402;2023-02-28T04:09:16;4.88;;;2.05;;
76320;SDS011;65132;52.088;5.402;2023-02-28T04:11:44;4.60;;;2.35;;
76320;SDS011;65132;52.088;5.402;2023-02-28T04:14:15;7.68;;;2.83;;
76320;SDS011;65132;52.088;5.402;2023-02-28T04:16:41;6.03;;;2.45;;
76320;SDS011;65132;52.088;5.402;2023-02-28T04:19:08;5.82;;;2.10;;
76320;SDS011;65132;52.088;5.402;2023-02-28T04:21:41;7.32;;;2.78;;
76320;SDS011;65132;52.088;5.402;2023-02-28T04:24:09;5.10;;;1.85;;
76320;SDS011;65132;52.088;5.402;2023-02-28T04:26:37;3.97;;;1.60;;
76320;SDS011;65132;52.088;5.402;2023-02-28T04:29:04;4.95;;;2.25;;
76320;SDS011;65132;52.088;5.402;2023-02-28T04:31:31;5.03;;;1.95;;
76320;SDS011;65132;52.088;5.402;2023-02-28T04:33:58;4.03;;;1.67;;
76320;SDS011;65132;52.088;5.402;2023-02-28T04:36:25;4.53;;;1.73;;
76320;SDS011;65132;52.088;5.402;2023-02-28T04:38:51;4.75;;;1.73;;
76320;SDS011;65132;52.088;5.402;2023-02-28T04:41:18;5.68;;;2.30;;
76320;SDS011;65132;52.088;5.402;2023-02-28T04:43:45;4.80;;;2.03;;
76320;SDS011;65132;52.088;5.402;2023-02-28T04:46:13;6.18;;;2.08;;
76320;SDS011;65132;52.088;5.402;2023-02-28T04:48:39;5.30;;;1.90;;
76320;SDS011;65132;52.088;5.402;2023-02-28T04:51:07;6.25;;;1.77;;
76320;SDS011;65132;52.088;5.402;2023-02-28T04:53:36;5.63;;;2.20;;
76320;SDS011;65132;52.088;5.402;2023-02-28T04:56:03;5.85;;;2.22;;
76320;SDS011;65132;52.088;5.402;2023-02-28T04:58:31;3.95;;;1.88;;
76320;SDS011;65132;52.088;5.402;2023-02-28T05:01:02;4.65;;;2.13;;
76320;SDS011;65132;52.088;5.402;2023-02-28T05:03:30;4.35;;;2.00;;
76320;SDS011;65132;52.088;5.402;2023-02-28T05:05:56;4.13;;;2.10;;
76320;SDS011;65132;52.088;5.402;2023-02-28T05:08:23;4.28;;;2.10;;
76320;SDS011;65132;52.088;5.402;2023-02-28T05:10:49;5.18;;;2.15;;
76320;SDS011;65132;52.088;5.402;2023-02-28T05:13:16;5.20;;;2.05;;
76320;SDS011;65132;52.088;5.402;2023-02-28T05:15:42;6.03;;;2.33;;
76320;SDS011;65132;52.088;5.402;2023-02-28T05:18:09;4.45;;;2.03;;
76320;SDS011;65132;52.088;5.402;2023-02-28T05:20:35;5.15;;;2.13;;
76320;SDS011;65132;52.088;5.402;2023-02-28T05:23:02;5.72;;;2.30;;
76320;SDS011;65132;52.088;5.402;2023-02-28T05:25:28;5.82;;;2.10;;
76320;SDS011;65132;52.088;5.402;2023-02-28T05:27:55;5.35;;;2.25;;
76320;SDS011;65132;52.088;5.402;2023-02-28T05:30:22;5.55;;;1.92;;
76320;SDS011;65132;52.088;5.402;2023-02-28T05:32:49;4.82;;;1.77;;
76320;SDS011;65132;52.088;5.402;2023-02-28T05:35:17;5.55;;;2.05;;
76320;SDS011;65132;52.088;5.402;2023-02-28T05:37:45;4.35;;;1.73;;
76320;SDS011;65132;52.088;5.402;2023-02-28T05:40:12;5.82;;;2.03;;
76320;SDS011;65132;52.088;5.402;2023-02-28T05:42:38;4.43;;;2.03;;
76320;SDS011;65132;52.088;5.402;2023-02-28T05:45:05;3.88;;;1.95;;
76320;SDS011;65132;52.088;5.402;2023-02-28T05:47:32;3.45;;;1.67;;
76320;SDS011;65132;52.088;5.402;2023-02-28T05:49:59;3.60;;;2.10;;
76320;SDS011;65132;52.088;5.402;2023-02-28T05:52:25;4.43;;;1.77;;
76320;SDS011;65132;52.088;5.402;2023-02-28T05:54:53;6.20;;;2.17;;
76320;SDS011;65132;52.088;5.402;2023-02-28T05:57:19;5.20;;;2.17;;
76320;SDS011;65132;52.088;5.402;2023-02-28T05:59:50;4.63;;;1.95;;
76320;SDS011;65132;52.088;5.402;2023-02-28T06:02:16;4.88;;;2.03;;
76320;SDS011;65132;52.088;5.402;2023-02-28T06:04:43;5.15;;;1.95;;
76320;SDS011;65132;52.088;5.402;2023-02-28T06:07:10;4.40;;;2.03;;
76320;SDS011;65132;52.088;5.402;2023-02-28T06:09:37;4.47;;;2.35;;
76320;SDS011;65132;52.088;5.402;2023-02-28T06:12:05;4.25;;;2.50;;
76320;SDS011;65132;52.088;5.402;2023-02-28T06:14:33;5.28;;;2.10;;
76320;SDS011;65132;52.088;5.402;2023-02-28T06:17:02;4.72;;;2.33;;
76320;SDS011;65132;52.088;5.402;2023-02-28T06:19:29;4.72;;;1.90;;
76320;SDS011;65132;52.088;5.402;2023-02-28T06:21:56;4.78;;;1.92;;
76320;SDS011;65132;52.088;5.402;2023-02-28T06:24:24;5.95;;;2.20;;
76320;SDS011;65132;52.088;5.402;2023-02-28T06:26:51;3.75;;;2.28;;
76320;SDS011;65132;52.088;5.402;2023-02-28T06:29:18;4.50;;;1.95;;
76320;SDS011;65132;52.088;5.402;2023-02-28T06:31:45;7.00;;;2.42;;
76320;SDS011;65132;52.088;5.402;2023-02-28T06:34:12;5.03;;;2.25;;
76320;SDS011;65132;52.088;5.402;2023-02-28T06:36:40;5.75;;;2.17;;
76320;SDS011;65132;52.088;5.402;2023-02-28T06:39:08;4.95;;;2.00;;
76320;SDS011;65132;52.088;5.402;2023-02-28T06:41:35;6.63;;;2.30;;
76320;SDS011;65132;52.088;5.402;2023-02-28T06:44:19;5.22;;;2.42;;
76320;SDS011;65132;52.088;5.402;2023-02-28T06:46:45;6.78;;;3.10;;
76320;SDS011;65132;52.088;5.402;2023-02-28T06:49:13;6.10;;;2.70;;
76320;SDS011;65132;52.088;5.402;2023-02-28T06:51:41;6.25;;;2.42;;
76320;SDS011;65132;52.088;5.402;2023-02-28T06:54:09;5.00;;;2.10;;
76320;SDS011;65132;52.088;5.402;2023-02-28T06:56:36;4.68;;;2.75;;
76320;SDS011;65132;52.088;5.402;2023-02-28T06:59:03;8.52;;;2.42;;
76320;SDS011;65132;52.088;5.402;2023-02-28T07:01:31;5.20;;;2.70;;
76320;SDS011;65132;52.088;5.402;2023-02-28T07:03:58;4.97;;;2.20;;
76320;SDS011;65132;52.088;5.402;2023-02-28T07:06:25;6.90;;;2.35;;
76320;SDS011;65132;52.088;5.402;2023-02-28T07:08:53;5.22;;;2.50;;
76320;SDS011;65132;52.088;5.402;2023-02-28T07:11:25;5.07;;;2.20;;
76320;SDS011;65132;52.088;5.402;2023-02-28T07:13:54;6.78;;;2.72;;
76320;SDS011;65132;52.088;5.402;2023-02-28T07:16:21;4.03;;;2.28;;
76320;SDS011;65132;52.088;5.402;2023-02-28T07:18:48;6.07;;;2.22;;
76320;SDS011;65132;52.088;5.402;2023-02-28T07:21:15;3.78;;;2.10;;
76320;SDS011;65132;52.088;5.402;2023-02-28T07:23:41;7.40;;;2.53;;
76320;SDS011;65132;52.088;5.402;2023-02-28T07:26:12;4.72;;;2.05;;
76320;SDS011;65132;52.088;5.402;2023-02-28T07:28:40;3.70;;;2.00;;
76320;SDS011;65132;52.088;5.402;2023-02-28T07:31:08;6.05;;;2.25;;
76320;SDS011;65132;52.088;5.402;2023-02-28T07:33:35;5.57;;;2.35;;
76320;SDS011;65132;52.088;5.402;2023-02-28T07:36:03;5.90;;;2.95;;
76320;SDS011;65132;52.088;5.402;2023-02-28T07:38:33;4.82;;;2.28;;
76320;SDS011;65132;52.088;5.402;2023-02-28T07:41:00;7.28;;;3.10;;
76320;SDS011;65132;52.088;5.402;2023-02-28T07:43:26;5.53;;;2.63;;
76320;SDS011;65132;52.088;5.402;2023-02-28T07:45:53;6.30;;;2.85;;
76320;SDS011;65132;52.088;5.402;2023-02-28T07:48:19;4.30;;;2.45;;
76320;SDS011;65132;52.088;5.402;2023-02-28T07:50:53;7.13;;;2.88;;
76320;SDS011;65132;52.088;5.402;2023-02-28T07:53:20;6.22;;;3.20;;
76320;SDS011;65132;52.088;5.402;2023-02-28T07:55:48;5.70;;;2.95;;
76320;SDS011;65132;52.088;5.402;2023-02-28T07:58:14;5.20;;;2.83;;
76320;SDS011;65132;52.088;5.402;2023-02-28T08:00:41;4.63;;;3.05;;
76320;SDS011;65132;52.088;5.402;2023-02-28T08:03:10;5.90;;;3.03;;
76320;SDS011;65132;52.088;5.402;2023-02-28T08:08:06;4.78;;;2.30;;
76320;SDS011;65132;52.088;5.402;2023-02-28T08:10:33;5.15;;;2.78;;
76320;SDS011;65132;52.088;5.402;2023-02-28T08:13:00;6.57;;;2.72;;
76320;SDS011;65132;52.088;5.402;2023-02-28T08:15:27;7.97;;;2.53;;
76320;SDS011;65132;52.088;5.402;2023-02-28T08:17:53;6.18;;;3.05;;
76320;SDS011;65132;52.088;5.402;2023-02-28T08:20:20;5.90;;;2.63;;
76320;SDS011;65132;52.088;5.402;2023-02-28T08:22:46;6.10;;;2.95;;
76320;SDS011;65132;52.088;5.402;2023-02-28T08:25:12;9.02;;;2.70;;
76320;SDS011;65132;52.088;5.402;2023-02-28T08:27:39;5.93;;;2.85;;
76320;SDS011;65132;52.088;5.402;2023-02-28T08:30:07;6.03;;;2.97;;
76320;SDS011;65132;52.088;5.402;2023-02-28T08:32:35;7.20;;;3.10;;
76320;SDS011;65132;52.088;5.402;2023-02-28T08:35:02;5.75;;;2.70;;
76320;SDS011;65132;52.088;5.402;2023-02-28T08:37:28;5.50;;;2.72;;
76320;SDS011;65132;52.088;5.402;2023-02-28T08:39:56;7.05;;;2.83;;
76320;SDS011;65132;52.088;5.402;2023-02-28T08:42:23;4.93;;;2.47;;
76320;SDS011;65132;52.088;5.402;2023-02-28T08:44:50;5.97;;;2.70;;
76320;SDS011;65132;52.088;5.402;2023-02-28T08:47:16;5.18;;;2.22;;
76320;SDS011;65132;52.088;5.402;2023-02-28T08:49:43;5.38;;;2.53;;
76320;SDS011;65132;52.088;5.402;2023-02-28T08:52:10;4.30;;;2.35;;
76320;SDS011;65132;52.088;5.402;2023-02-28T08:54:37;6.35;;;2.42;;
76320;SDS011;65132;52.088;5.402;2023-02-28T08:57:03;4.78;;;2.45;;
76320;SDS011;65132;52.088;5.402;2023-02-28T08:59:30;4.97;;;2.65;;
76320;SDS011;65132;52.088;5.402;2023-02-28T09:01:56;6.10;;;2.65;;
76320;SDS011;65132;52.088;5.402;2023-02-28T09:04:22;3.60;;;2.30;;
76320;SDS011;65132;52.088;5.402;2023-02-28T09:06:50;5.78;;;2.20;;
76320;SDS011;65132;52.088;5.402;2023-02-28T09:09:17;6.90;;;2.33;;
76320;SDS011;65132;52.088;5.402;2023-02-28T09:11:43;4.65;;;2.20;;
76320;SDS011;65132;52.088;5.402;2023-02-28T09:14:09;6.78;;;1.90;;
76320;SDS011;65132;52.088;5.402;2023-02-28T09:16:36;5.07;;;1.85;;
76320;SDS011;65132;52.088;5.402;2023-02-28T09:19:03;3.63;;;1.65;;
76320;SDS011;65132;52.088;5.402;2023-02-28T09:21:30;2.92;;;1.60;;
76320;SDS011;65132;52.088;5.402;2023-02-28T09:23:56;3.42;;;1.50;;
76320;SDS011;65132;52.088;5.402;2023-02-28T09:26:24;4.05;;;1.80;;
76320;SDS011;65132;52.088;5.402;2023-02-28T09:29:00;3.00;;;1.40;;
76320;SDS011;65132;52.088;5.402;2023-02-28T09:31:27;2.58;;;1.10;;
76320;SDS011;65132;52.088;5.402;2023-02-28T09:33:57;2.95;;;1.02;;
76320;SDS011;65132;52.088;5.402;2023-02-28T09:36:25;4.05;;;1.35;;
76320;SDS011;65132;52.088;5.402;2023-02-28T09:39:08;3.25;;;1.10;;
76320;SDS011;65132;52.088;5.402;2023-02-28T09:41:39;2.10;;;0.82;;
76320;SDS011;65132;52.088;5.402;2023-02-28T09:44:09;2.92;;;0.90;;
76320;SDS011;65132;52.088;5.402;2023-02-28T09:46:44;1.80;;;0.80;;
76320;SDS011;65132;52.088;5.402;2023-02-28T09:49:16;2.40;;;0.90;;
76320;SDS011;65132;52.088;5.402;2023-02-28T09:51:52;3.15;;;1.10;;
76320;SDS011;65132;52.088;5.402;2023-02-28T09:54:30;2.53;;;0.98;;
76320;SDS011;65132;52.088;5.402;2023-02-28T09:57:05;2.15;;;0.80;;
76320;SDS011;65132;52.088;5.402;2023-02-28T10:04:47;2.80;;;1.10;;
76320;SDS011;65132;52.088;5.402;2023-02-28T10:10:20;3.15;;;0.98;;
76320;SDS011;65132;52.088;5.402;2023-02-28T10:12:51;3.17;;;1.15;;
76320;SDS011;65132;52.088;5.402;2023-02-28T10:17:50;2.60;;;1.20;;
76320;SDS011;65132;52.088;5.402;2023-02-28T10:20:35;2.05;;;0.95;;
76320;SDS011;65132;52.088;5.402;2023-02-28T10:26:11;3.45;;;1.30;;
76320;SDS011;65132;52.088;5.402;2023-02-28T10:28:39;2.20;;;0.88;;
76320;SDS011;65132;52.088;5.402;2023-02-28T10:31:08;2.42;;;1.02;;
76320;SDS011;65132;52.088;5.402;2023-02-28T10:33:42;2.42;;;1.00;;
76320;SDS011;65132;52.088;5.402;2023-02-28T10:36:11;3.00;;;1.13;;
76320;SDS011;65132;52.088;5.402;2023-02-28T10:38:41;2.70;;;0.80;;
76320;SDS011;65132;52.088;5.402;2023-02-28T10:41:13;2.55;;;1.10;;
76320;SDS011;65132;52.088;5.402;2023-02-28T10:43:40;2.95;;;1.52;;
76320;SDS011;65132;52.088;5.402;2023-02-28T10:51:07;2.75;;;1.15;;
76320;SDS011;65132;52.088;5.402;2023-02-28T10:56:25;1.90;;;0.75;;
76320;SDS011;65132;52.088;5.402;2023-02-28T11:01:43;3.95;;;0.98;;
76320;SDS011;65132;52.088;5.402;2023-02-28T11:07:19;2.70;;;1.02;;
76320;SDS011;65132;52.088;5.402;2023-02-28T11:09:56;2.63;;;0.90;;
76320;SDS011;65132;52.088;5.402;2023-02-28T11:12:29;2.53;;;1.02;;
76320;SDS011;65132;52.088;5.402;2023-02-28T11:15:06;2.45;;;0.98;;
76320;SDS011;65132;52.088;5.402;2023-02-28T11:17:55;2.20;;;1.02;;
76320;SDS011;65132;52.088;5.402;2023-02-28T11:22:52;2.40;;;1.02;;
76320;SDS011;65132;52.088;5.402;2023-02-28T11:25:23;2.40;;;1.00;;
76320;SDS011;65132;52.088;5.402;2023-02-28T11:27:54;3.85;;;1.45;;
76320;SDS011;65132;52.088;5.402;2023-02-28T11:33:01;2.10;;;0.85;;
76320;SDS011;65132;52.088;5.402;2023-02-28T11:35:46;3.35;;;1.00;;
76320;SDS011;65132;52.088;5.402;2023-02-28T11:38:15;3.25;;;1.00;;
76320;SDS011;65132;52.088;5.402;2023-02-28T11:46:00;3.20;;;1.00;;
76320;SDS011;65132;52.088;5.402;2023-02-28T11:51:18;3.38;;;1.08;;
76320;SDS011;65132;52.088;5.402;2023-02-28T11:59:51;2.65;;;0.90;;
76320;SDS011;65132;52.088;5.402;2023-02-28T12:02:23;3.00;;;0.60;;
76320;SDS011;65132;52.088;5.402;2023-02-28T12:04:52;1.80;;;0.75;;
76320;SDS011;65132;52.088;5.402;2023-02-28T12:07:42;2.75;;;0.82;;
76320;SDS011;65132;52.088;5.402;2023-02-28T12:10:35;2.75;;;0.90;;
76320;SDS011;65132;52.088;5.402;2023-02-28T12:13:16;1.98;;;0.85;;
76320;SDS011;65132;52.088;5.402;2023-02-28T12:27:44;2.60;;;1.10;;
76320;SDS011;65132;52.088;5.402;2023-02-28T12:30:14;2.97;;;1.20;;
76320;SDS011;65132;52.088;5.402;2023-02-28T12:32:58;2.25;;;1.05;;
76320;SDS011;65132;52.088;5.402;2023-02-28T12:35:34;2.35;;;1.00;;
76320;SDS011;65132;52.088;5.402;2023-02-28T12:38:19;1.92;;;1.00;;
76320;SDS011;65132;52.088;5.402;2023-02-28T12:43:24;1.98;;;0.88;;
76320;SDS011;65132;52.088;5.402;2023-02-28T12:46:14;2.45;;;1.02;;
76320;SDS011;65132;52.088;5.402;2023-02-28T12:48:55;2.40;;;1.02;;
76320;SDS011;65132;52.088;5.402;2023-02-28T12:51:24;2.35;;;1.33;;
76320;SDS011;65132;52.088;5.402;2023-02-28T12:54:09;3.75;;;1.02;;
76320;SDS011;65132;52.088;5.402;2023-02-28T12:57:01;2.47;;;1.15;;
76320;SDS011;65132;52.088;5.402;2023-02-28T12:59:49;2.92;;;0.98;;
76320;SDS011;65132;52.088;5.402;2023-02-28T13:02:33;2.45;;;1.10;;
76320;SDS011;65132;52.088;5.402;2023-02-28T13:08:56;2.55;;;1.15;;
76320;SDS011;65132;52.088;5.402;2023-02-28T13:11:04;3.50;;;1.13;;
76320;SDS011;65132;52.088;5.402;2023-02-28T13:13:38;1.98;;;0.98;;
76320;SDS011;65132;52.088;5.402;2023-02-28T13:16:05;2.45;;;1.10;;
76320;SDS011;65132;52.088;5.402;2023-02-28T13:21:24;2.22;;;0.93;;
76320;SDS011;65132;52.088;5.402;2023-02-28T13:23:58;2.30;;;1.17;;
76320;SDS011;65132;52.088;5.402;2023-02-28T13:34:28;2.60;;;1.58;;
76320;SDS011;65132;52.088;5.402;2023-02-28T13:37:30;2.65;;;1.30;;
76320;SDS011;65132;52.088;5.402;2023-02-28T13:39:51;2.60;;;1.38;;
76320;SDS011;65132;52.088;5.402;2023-02-28T13:47:40;3.83;;;1.35;;
76320;SDS011;65132;52.088;5.402;2023-02-28T14:01:22;2.97;;;1.30;;
76320;SDS011;65132;52.088;5.402;2023-02-28T14:06:48;3.72;;;1.65;;
76320;SDS011;65132;52.088;5.402;2023-02-28T14:11:56;3.13;;;1.42;;
76320;SDS011;65132;52.088;5.402;2023-02-28T14:17:03;2.40;;;1.45;;
76320;SDS011;65132;52.088;5.402;2023-02-28T14:19:34;2.67;;;1.33;;
76320;SDS011;65132;52.088;5.402;2023-02-28T14:25:13;2.67;;;1.30;;
76320;SDS011;65132;52.088;5.402;2023-02-28T14:27:53;3.10;;;1.58;;
76320;SDS011;65132;52.088;5.402;2023-02-28T14:36:17;2.65;;;1.67;;
76320;SDS011;65132;52.088;5.402;2023-02-28T14:38:52;2.50;;;1.52;;
76320;SDS011;65132;52.088;5.402;2023-02-28T14:47:11;3.83;;;1.60;;
76320;SDS011;65132;52.088;5.402;2023-02-28T14:49:42;4.72;;;1.70;;
76320;SDS011;65132;52.088;5.402;2023-02-28T14:54:46;2.55;;;1.42;;
76320;SDS011;65132;52.088;5.402;2023-02-28T14:57:22;2.90;;;1.42;;
76320;SDS011;65132;52.088;5.402;2023-02-28T15:00:53;2.40;;;1.35;;
76320;SDS011;65132;52.088;5.402;2023-02-28T15:03:17;2.25;;;1.40;;
76320;SDS011;65132;52.088;5.402;2023-02-28T15:08:48;2.75;;;1.42;;
76320;SDS011;65132;52.088;5.402;2023-02-28T15:11:45;3.00;;;1.40;;
76320;SDS011;65132;52.088;5.402;2023-02-28T15:14:15;3.17;;;1.52;;
76320;SDS011;65132;52.088;5.402;2023-02-28T15:16:44;3.72;;;1.40;;
76320;SDS011;65132;52.088;5.402;2023-02-28T15:21:54;3.38;;;1.50;;
76320;SDS011;65132;52.088;5.402;2023-02-28T15:24:35;2.83;;;1.40;;
76320;SDS011;65132;52.088;5.402;2023-02-28T15:27:10;2.83;;;1.42;;
76320;SDS011;65132;52.088;5.402;2023-02-28T15:29:43;2.70;;;1.33;;
76320;SDS011;65132;52.088;5.402;2023-02-28T15:32:48;3.63;;;1.40;;
76320;SDS011;65132;52.088;5.402;2023-02-28T15:40:43;3.17;;;1.42;;
76320;SDS011;65132;52.088;5.402;2023-02-28T15:43:15;2.35;;;1.25;;
76320;SDS011;65132;52.088;5.402;2023-02-28T15:45:45;2.55;;;1.45;;
76320;SDS011;65132;52.088;5.402;2023-02-28T15:50:53;2.45;;;1.33;;
76320;SDS011;65132;52.088;5.402;2023-02-28T15:53:32;2.72;;;1.60;;
76320;SDS011;65132;52.088;5.402;2023-02-28T15:56:02;2.92;;;1.55;;
76320;SDS011;65132;52.088;5.402;2023-02-28T15:58:32;3.53;;;1.55;;
76320;SDS011;65132;52.088;5.402;2023-02-28T16:01:47;3.00;;;1.30;;
76320;SDS011;65132;52.088;5.402;2023-02-28T16:03:48;2.40;;;1.58;;
76320;SDS011;65132;52.088;5.402;2023-02-28T16:08:52;2.65;;;1.25;;
76320;SDS011;65132;52.088;5.402;2023-02-28T16:11:19;2.80;;;1.40;;
76320;SDS011;65132;52.088;5.402;2023-02-28T16:13:47;2.25;;;1.30;;
76320;SDS011;65132;52.088;5.402;2023-02-28T16:16:17;2.50;;;1.33;;
76320;SDS011;65132;52.088;5.402;2023-02-28T16:18:44;2.45;;;1.17;;
76320;SDS011;65132;52.088;5.402;2023-02-28T16:21:10;3.15;;;1.35;;
76320;SDS011;65132;52.088;5.402;2023-02-28T16:23:37;2.85;;;1.20;;
76320;SDS011;65132;52.088;5.402;2023-02-28T16:26:04;2.10;;;1.08;;
76320;SDS011;65132;52.088;5.402;2023-02-28T16:28:33;2.70;;;1.13;;
76320;SDS011;65132;52.088;5.402;2023-02-28T16:31:03;2.30;;;1.35;;
76320;SDS011;65132;52.088;5.402;2023-02-28T16:33:33;3.55;;;1.40;;
76320;SDS011;65132;52.088;5.402;2023-02-28T16:35:59;2.90;;;1.40;;
76320;SDS011;65132;52.088;5.402;2023-02-28T16:38:26;1.98;;;1.20;;
76320;SDS011;65132;52.088;5.402;2023-02-28T16:40:53;3.35;;;1.77;;
76320;SDS011;65132;52.088;5.402;2023-02-28T16:43:23;3.13;;;1.38;;
76320;SDS011;65132;52.088;5.402;2023-02-28T16:45:56;2.88;;;1.42;;
76320;SDS011;65132;52.088;5.402;2023-02-28T16:48:25;3.15;;;1.48;;
76320;SDS011;65132;52.088;5.402;2023-02-28T16:50:51;3.53;;;1.55;;
76320;SDS011;65132;52.088;5.402;2023-02-28T16:53:18;3.15;;;1.27;;
76320;SDS011;65132;52.088;5.402;2023-02-28T16:55:44;3.13;;;1.52;;
76320;SDS011;65132;52.088;5.402;2023-02-28T16:58:13;3.42;;;1.42;;
76320;SDS011;65132;52.088;5.402;2023-02-28T17:00:41;3.85;;;1.60;;
76320;SDS011;65132;52.088;5.402;2023-02-28T17:03:12;3.22;;;1.45;;
76320;SDS011;65132;52.088;5.402;2023-02-28T17:05:58;3.17;;;1.63;;
76320;SDS011;65132;52.088;5.402;2023-02-28T17:08:24;2.55;;;1.35;;
76320;SDS011;65132;52.088;5.402;2023-02-28T17:10:50;3.30;;;1.38;;
76320;SDS011;65132;52.088;5.402;2023-02-28T17:13:17;4.18;;;1.40;;
76320;SDS011;65132;52.088;5.402;2023-02-28T17:15:43;3.05;;;1.20;;
76320;SDS011;65132;52.088;5.402;2023-02-28T17:18:13;3.63;;;1.30;;
76320;SDS011;65132;52.088;5.402;2023-02-28T17:20:41;3.33;;;1.73;;
76320;SDS011;65132;52.088;5.402;2023-02-28T17:23:08;3.45;;;1.63;;
76320;SDS011;65132;52.088;5.402;2023-02-28T17:25:34;3.03;;;1.52;;
76320;SDS011;65132;52.088;5.402;2023-02-28T17:28:00;3.72;;;1.67;;
76320;SDS011;65132;52.088;5.402;2023-02-28T17:30:27;3.58;;;1.70;;
76320;SDS011;65132;52.088;5.402;2023-02-28T17:32:55;2.55;;;1.33;;
76320;SDS011;65132;52.088;5.402;2023-02-28T17:35:22;4.53;;;1.60;;
76320;SDS011;65132;52.088;5.402;2023-02-28T17:37:49;3.92;;;2.00;;
76320;SDS011;65132;52.088;5.402;2023-02-28T17:40:17;5.13;;;1.73;;
76320;SDS011;65132;52.088;5.402;2023-02-28T17:42:48;3.55;;;1.42;;
76320;SDS011;65132;52.088;5.402;2023-02-28T17:45:16;3.00;;;1.60;;
76320;SDS011;65132;52.088;5.402;2023-02-28T17:47:43;3.88;;;2.10;;
76320;SDS011;65132;52.088;5.402;2023-02-28T17:50:15;3.08;;;1.67;;
76320;SDS011;65132;52.088;5.402;2023-02-28T17:52:43;2.90;;;1.63;;
76320;SDS011;65132;52.088;5.402;2023-02-28T17:55:11;4.70;;;1.83;;